createdAt,value
2018-12-09T00:00:51.716Z,0.00
2018-12-09T00:01:51.824Z,0.00
2018-12-09T00:02:51.894Z,0.00
2018-12-09T00:03:51.930Z,0.00
2018-12-09T00:04:52.026Z,0.00
2018-12-09T00:05:51.981Z,0.00
2018-12-09T00:06:52.035Z,0.00
2018-12-09T00:07:52.125Z,0.00
2018-12-09T00:08:52.186Z,0.00
2018-12-09T00:09:52.208Z,0.00
2018-12-09T00:10:52.262Z,0.00
2018-12-09T00:11:52.427Z,0.00
2018-12-09T00:12:52.404Z,0.00
2018-12-09T00:13:52.498Z,0.00
2018-12-09T00:14:52.525Z,0.00
2018-12-09T00:15:52.559Z,0.00
2018-12-09T00:16:52.665Z,0.00
2018-12-09T00:17:52.719Z,0.00
2018-12-09T00:18:52.767Z,0.00
2018-12-09T00:19:52.788Z,0.00
2018-12-09T00:20:52.856Z,0.00
2018-12-09T00:21:53.014Z,0.00
2018-12-09T00:22:52.964Z,0.00
2018-12-09T00:23:53.040Z,0.00
2018-12-09T00:24:53.128Z,0.00
2018-12-09T00:25:53.139Z,0.00
2018-12-09T00:26:53.308Z,0.00
2018-12-09T00:27:53.284Z,0.00
2018-12-09T00:28:53.307Z,0.00
2018-12-09T00:29:53.376Z,0.00
2018-12-09T00:30:53.458Z,0.00
2018-12-09T00:31:53.588Z,0.00
2018-12-09T00:32:53.566Z,0.00
2018-12-09T00:33:53.575Z,0.00
2018-12-09T00:34:53.691Z,0.00
2018-12-09T00:35:53.678Z,0.00
2018-12-09T00:36:53.804Z,0.00
2018-12-09T00:37:53.873Z,0.00
2018-12-09T00:38:53.847Z,0.00
2018-12-09T00:39:53.973Z,0.00
2018-12-09T00:40:53.991Z,0.00
2018-12-09T00:41:54.125Z,0.00
2018-12-09T00:42:54.103Z,0.00
2018-12-09T00:43:54.151Z,0.00
2018-12-09T00:44:54.259Z,0.00
2018-12-09T00:45:54.328Z,0.00
2018-12-09T00:46:54.303Z,0.00
2018-12-09T00:47:54.440Z,0.00
2018-12-09T00:48:54.481Z,0.00
2018-12-09T00:49:54.549Z,0.00
2018-12-09T00:50:54.584Z,0.00
2018-12-09T00:51:54.641Z,0.00
2018-12-09T00:52:54.707Z,0.00
2018-12-09T00:53:54.718Z,0.00
2018-12-09T00:54:54.786Z,0.00
2018-12-09T00:55:54.868Z,0.00
2018-12-09T00:56:54.974Z,0.00
2018-12-09T00:57:55.011Z,0.00
2018-12-09T00:58:54.986Z,0.00
2018-12-09T00:59:55.043Z,0.00
2018-12-09T01:00:55.111Z,0.00
2018-12-09T01:01:55.288Z,0.00
2018-12-09T01:02:55.298Z,0.00
2018-12-09T01:03:55.277Z,0.00
2018-12-09T01:04:55.412Z,0.00
2018-12-09T01:05:55.447Z,0.00
2018-12-09T01:06:55.564Z,0.00
2018-12-09T01:07:55.565Z,0.00
2018-12-09T01:08:55.552Z,0.00
2018-12-09T01:09:55.629Z,0.00
2018-12-09T01:10:55.722Z,0.00
2018-12-09T01:11:55.826Z,0.00
2018-12-09T01:12:55.816Z,0.00
2018-12-09T01:13:55.922Z,0.00
2018-12-09T01:14:55.941Z,0.00
2018-12-09T01:15:55.996Z,0.00
2018-12-09T01:16:56.137Z,0.00
2018-12-09T01:17:56.141Z,0.00
2018-12-09T01:18:56.119Z,0.00
2018-12-09T01:19:56.180Z,0.00
2018-12-09T01:20:56.308Z,0.00
2018-12-09T01:21:56.367Z,0.00
2018-12-09T01:22:56.400Z,0.00
2018-12-09T01:23:56.402Z,0.00
2018-12-09T01:24:56.460Z,0.00
2018-12-09T01:25:56.516Z,0.00
2018-12-09T01:26:56.572Z,0.00
2018-12-09T01:27:56.629Z,0.00
2018-12-09T01:28:56.703Z,0.00
2018-12-09T01:29:56.791Z,0.00
2018-12-09T01:30:56.843Z,0.00
2018-12-09T01:31:56.895Z,0.00
2018-12-09T01:32:57.014Z,0.00
2018-12-09T01:33:57.065Z,0.00
2018-12-09T01:34:57.092Z,0.00
2018-12-09T01:35:57.081Z,0.00
2018-12-09T01:36:57.139Z,0.00
2018-12-09T01:37:57.196Z,0.00
2018-12-09T01:38:57.250Z,0.00
2018-12-09T01:39:57.349Z,0.00
2018-12-09T01:40:57.365Z,0.00
2018-12-09T01:41:57.422Z,0.00
2018-12-09T01:42:57.476Z,0.00
2018-12-09T01:43:57.534Z,0.00
2018-12-09T01:44:57.590Z,0.00
2018-12-09T01:45:57.647Z,0.00
2018-12-09T01:46:57.703Z,0.00
2018-12-09T01:47:57.761Z,0.00
2018-12-09T01:48:57.820Z,0.00
2018-12-09T01:49:57.873Z,0.00
2018-12-09T01:50:57.929Z,0.00
2018-12-09T01:51:57.985Z,0.00
2018-12-09T01:52:58.041Z,0.00
2018-12-09T01:53:58.098Z,0.00
2018-12-09T01:54:58.168Z,0.00
2018-12-09T01:55:58.210Z,0.00
2018-12-09T01:56:58.266Z,0.00
2018-12-09T01:57:58.364Z,0.00
2018-12-09T01:58:58.379Z,0.00
2018-12-09T01:59:58.433Z,0.00
2018-12-09T02:00:58.490Z,0.00
2018-12-09T02:01:58.546Z,0.00
2018-12-09T02:02:58.601Z,0.00
2018-12-09T02:03:58.657Z,0.00
2018-12-09T02:04:58.713Z,0.00
2018-12-09T02:05:58.771Z,0.00
2018-12-09T02:06:58.825Z,0.00
2018-12-09T02:07:58.879Z,0.00
2018-12-09T02:08:58.936Z,0.00
2018-12-09T02:09:58.991Z,0.00
2018-12-09T02:10:59.050Z,0.00
2018-12-09T02:11:59.101Z,0.00
2018-12-09T02:12:59.158Z,0.00
2018-12-09T02:13:59.218Z,0.00
2018-12-09T02:14:59.271Z,0.00
2018-12-09T02:15:59.325Z,0.00
2018-12-09T02:16:59.381Z,0.00
2018-12-09T02:17:59.438Z,0.00
2018-12-09T02:18:59.491Z,0.00
2018-12-09T02:19:59.564Z,0.00
2018-12-09T02:20:59.603Z,0.00
2018-12-09T02:21:59.660Z,0.00
2018-12-09T02:22:59.716Z,0.00
2018-12-09T02:23:59.770Z,0.00
2018-12-09T02:24:59.835Z,0.00
2018-12-09T02:25:59.882Z,0.00
2018-12-09T02:26:59.940Z,0.00
2018-12-09T02:27:59.995Z,0.00
2018-12-09T02:29:00.052Z,0.00
2018-12-09T02:30:00.110Z,0.00
2018-12-09T02:31:00.161Z,0.00
2018-12-09T02:32:00.219Z,0.00
2018-12-09T02:33:00.273Z,0.00
2018-12-09T02:34:00.330Z,0.00
2018-12-09T02:35:00.385Z,0.00
2018-12-09T02:36:00.441Z,0.00
2018-12-09T02:37:00.496Z,0.00
2018-12-09T02:38:00.554Z,0.00
2018-12-09T02:39:00.608Z,0.00
2018-12-09T02:40:00.664Z,0.00
2018-12-09T02:41:00.721Z,0.00
2018-12-09T02:42:00.776Z,0.00
2018-12-09T02:43:00.831Z,0.00
2018-12-09T02:44:00.889Z,0.00
2018-12-09T02:45:00.950Z,0.00
2018-12-09T02:46:00.999Z,0.00
2018-12-09T02:47:01.057Z,0.00
2018-12-09T02:48:01.111Z,0.00
2018-12-09T02:49:01.167Z,0.00
2018-12-09T02:50:01.224Z,0.00
2018-12-09T02:51:01.279Z,0.00
2018-12-09T02:52:01.335Z,0.00
2018-12-09T02:53:01.391Z,0.00
2018-12-09T02:54:01.447Z,0.00
2018-12-09T02:55:01.502Z,0.00
2018-12-09T02:56:01.558Z,0.00
2018-12-09T02:57:01.613Z,0.00
2018-12-09T02:58:01.671Z,0.00
2018-12-09T02:59:01.726Z,0.00
2018-12-09T03:00:01.833Z,0.00
2018-12-09T03:01:01.836Z,0.00
2018-12-09T03:02:01.893Z,0.00
2018-12-09T03:03:01.950Z,0.00
2018-12-09T03:04:02.004Z,0.00
2018-12-09T03:05:02.322Z,0.00
2018-12-09T03:06:02.116Z,0.00
2018-12-09T03:07:02.172Z,0.00
2018-12-09T03:08:02.228Z,0.00
2018-12-09T03:09:02.285Z,0.00
2018-12-09T03:10:02.349Z,0.00
2018-12-09T03:11:02.396Z,0.00
2018-12-09T03:12:02.459Z,0.00
2018-12-09T03:13:02.511Z,0.00
2018-12-09T03:14:02.572Z,0.00
2018-12-09T03:15:02.620Z,0.00
2018-12-09T03:16:02.675Z,0.00
2018-12-09T03:17:02.734Z,0.00
2018-12-09T03:18:02.788Z,0.00
2018-12-09T03:19:02.846Z,0.00
2018-12-09T03:20:02.899Z,0.00
2018-12-09T03:21:02.955Z,0.00
2018-12-09T03:22:03.014Z,0.00
2018-12-09T03:23:03.068Z,0.00
2018-12-09T03:24:03.124Z,0.00
2018-12-09T03:25:03.179Z,0.00
2018-12-09T03:26:03.237Z,0.00
2018-12-09T03:27:03.292Z,0.00
2018-12-09T03:28:03.347Z,0.00
2018-12-09T03:29:03.404Z,0.00
2018-12-09T03:30:03.460Z,0.00
2018-12-09T03:31:03.515Z,0.00
2018-12-09T03:32:03.573Z,0.00
2018-12-09T03:33:03.631Z,0.00
2018-12-09T03:34:03.684Z,0.00
2018-12-09T03:35:03.739Z,0.00
2018-12-09T03:36:03.799Z,0.00
2018-12-09T03:37:03.851Z,0.00
2018-12-09T03:38:03.909Z,0.00
2018-12-09T03:39:03.963Z,0.00
2018-12-09T03:40:04.019Z,0.00
2018-12-09T03:41:04.075Z,0.00
2018-12-09T03:42:04.133Z,0.00
2018-12-09T03:43:04.198Z,0.00
2018-12-09T03:44:04.259Z,0.00
2018-12-09T03:45:04.299Z,0.00
2018-12-09T03:46:04.357Z,0.00
2018-12-09T03:47:04.410Z,0.00
2018-12-09T03:48:04.467Z,0.00
2018-12-09T03:49:04.524Z,0.00
2018-12-09T03:50:04.580Z,0.00
2018-12-09T03:51:04.634Z,0.00
2018-12-09T03:52:04.696Z,0.00
2018-12-09T03:53:04.749Z,0.00
2018-12-09T03:54:04.804Z,0.00
2018-12-09T03:55:04.881Z,0.00
2018-12-09T03:56:04.931Z,0.00
2018-12-09T03:57:04.971Z,0.00
2018-12-09T03:58:05.031Z,0.00
2018-12-09T03:59:05.082Z,0.00
2018-12-09T04:00:05.180Z,0.00
2018-12-09T04:01:05.195Z,0.00
2018-12-09T04:02:05.250Z,0.00
2018-12-09T04:03:05.307Z,0.00
2018-12-09T04:04:05.363Z,0.00
2018-12-09T04:05:05.420Z,0.00
2018-12-09T04:06:05.475Z,0.00
2018-12-09T04:07:05.530Z,0.00
2018-12-09T04:08:05.585Z,0.00
2018-12-09T04:09:05.641Z,0.00
2018-12-09T04:10:05.698Z,0.00
2018-12-09T04:11:05.752Z,0.00
2018-12-09T04:12:05.821Z,0.00
2018-12-09T04:13:05.864Z,0.00
2018-12-09T04:14:05.920Z,0.00
2018-12-09T04:15:05.974Z,0.00
2018-12-09T04:16:06.031Z,0.00
2018-12-09T04:17:06.088Z,0.00
2018-12-09T04:18:06.144Z,0.00
2018-12-09T04:19:06.199Z,0.00
2018-12-09T04:20:06.255Z,0.00
2018-12-09T04:21:06.312Z,0.00
2018-12-09T04:22:06.369Z,0.00
2018-12-09T04:23:06.422Z,0.00
2018-12-09T04:24:06.480Z,0.00
2018-12-09T04:25:06.534Z,0.00
2018-12-09T04:26:06.590Z,0.00
2018-12-09T04:27:06.646Z,0.00
2018-12-09T04:28:06.702Z,0.00
2018-12-09T04:29:06.757Z,0.00
2018-12-09T04:30:06.898Z,0.00
2018-12-09T04:31:06.870Z,0.00
2018-12-09T04:32:06.926Z,0.00
2018-12-09T04:33:06.980Z,0.00
2018-12-09T04:34:07.039Z,0.00
2018-12-09T04:35:07.091Z,0.00
2018-12-09T04:36:07.150Z,0.00
2018-12-09T04:37:07.204Z,0.00
2018-12-09T04:38:07.259Z,0.00
2018-12-09T04:39:07.313Z,0.00
2018-12-09T04:40:08.746Z,0.00
2018-12-09T04:41:07.426Z,0.00
2018-12-09T04:42:07.487Z,0.00
2018-12-09T04:43:07.541Z,0.00
2018-12-09T04:44:07.594Z,0.00
2018-12-09T04:45:07.652Z,0.00
2018-12-09T04:46:07.713Z,0.00
2018-12-09T04:47:07.760Z,0.00
2018-12-09T04:48:07.842Z,0.00
2018-12-09T04:49:07.872Z,0.00
2018-12-09T04:50:07.930Z,0.00
2018-12-09T04:51:07.984Z,0.00
2018-12-09T04:52:08.049Z,0.00
2018-12-09T04:53:08.096Z,0.00
2018-12-09T04:54:08.152Z,0.00
2018-12-09T04:55:08.207Z,0.00
2018-12-09T04:56:08.286Z,0.00
2018-12-09T04:57:08.318Z,0.00
2018-12-09T04:58:08.375Z,0.00
2018-12-09T04:59:08.429Z,0.00
2018-12-09T05:00:08.486Z,0.00
2018-12-09T05:01:08.902Z,0.00
2018-12-09T05:02:08.596Z,0.00
2018-12-09T05:03:08.654Z,0.00
2018-12-09T05:04:08.708Z,0.00
2018-12-09T05:05:08.764Z,0.00
2018-12-09T05:06:08.820Z,0.00
2018-12-09T05:07:08.875Z,0.00
2018-12-09T05:08:08.934Z,0.00
2018-12-09T05:09:08.988Z,0.00
2018-12-09T05:10:09.043Z,0.00
2018-12-09T05:11:09.099Z,0.00
2018-12-09T05:12:09.156Z,0.00
2018-12-09T05:13:09.211Z,0.00
2018-12-09T05:14:09.268Z,0.00
2018-12-09T05:15:09.323Z,0.00
2018-12-09T05:16:09.379Z,0.00
2018-12-09T05:17:09.433Z,0.00
2018-12-09T05:18:09.493Z,0.00
2018-12-09T05:19:09.545Z,0.00
2018-12-09T05:20:09.603Z,0.00
2018-12-09T05:21:09.660Z,0.00
2018-12-09T05:22:09.717Z,0.00
2018-12-09T05:23:09.767Z,0.00
2018-12-09T05:24:09.826Z,0.00
2018-12-09T05:25:09.880Z,0.00
2018-12-09T05:26:09.936Z,0.00
2018-12-09T05:27:09.991Z,0.00
2018-12-09T05:28:10.048Z,0.00
2018-12-09T05:29:10.104Z,0.00
2018-12-09T05:30:10.160Z,0.00
2018-12-09T05:31:10.215Z,0.00
2018-12-09T05:32:10.270Z,0.00
2018-12-09T05:33:10.327Z,0.00
2018-12-09T05:34:10.383Z,0.00
2018-12-09T05:35:10.441Z,0.00
2018-12-09T05:36:10.493Z,0.00
2018-12-09T05:37:10.562Z,0.00
2018-12-09T05:38:10.606Z,0.00
2018-12-09T05:39:10.661Z,0.00
2018-12-09T05:40:11.978Z,0.00
2018-12-09T05:41:10.779Z,0.00
2018-12-09T05:42:10.828Z,0.00
2018-12-09T05:43:10.886Z,0.00
2018-12-09T05:44:10.940Z,0.00
2018-12-09T05:45:10.996Z,0.00
2018-12-09T05:46:11.053Z,0.00
2018-12-09T05:47:11.108Z,0.00
2018-12-09T05:48:11.170Z,0.00
2018-12-09T05:49:11.220Z,0.00
2018-12-09T05:50:11.278Z,0.00
2018-12-09T05:51:11.334Z,0.00
2018-12-09T05:52:11.388Z,0.00
2018-12-09T05:53:11.464Z,0.00
2018-12-09T05:54:11.502Z,0.00
2018-12-09T05:55:11.557Z,0.00
2018-12-09T05:56:11.613Z,0.00
2018-12-09T05:57:11.669Z,0.00
2018-12-09T05:58:11.736Z,0.00
2018-12-09T05:59:11.780Z,0.00
2018-12-09T06:00:11.836Z,0.00
2018-12-09T06:01:11.893Z,0.00
2018-12-09T06:02:11.948Z,0.00
2018-12-09T06:03:12.003Z,0.00
2018-12-09T06:04:12.060Z,0.00
2018-12-09T06:05:12.118Z,0.00
2018-12-09T06:06:12.174Z,0.00
2018-12-09T06:07:12.229Z,0.00
2018-12-09T06:08:12.285Z,0.00
2018-12-09T06:09:12.342Z,0.00
2018-12-09T06:10:12.399Z,0.00
2018-12-09T06:11:12.453Z,0.00
2018-12-09T06:12:12.510Z,0.00
2018-12-09T06:13:12.566Z,0.00
2018-12-09T06:14:12.625Z,0.00
2018-12-09T06:15:12.678Z,0.00
2018-12-09T06:16:12.733Z,0.00
2018-12-09T06:17:12.790Z,0.00
2018-12-09T06:18:12.847Z,0.00
2018-12-09T06:19:12.903Z,0.00
2018-12-09T06:20:12.959Z,0.00
2018-12-09T06:21:13.015Z,0.00
2018-12-09T06:22:13.072Z,0.00
2018-12-09T06:23:13.128Z,0.00
2018-12-09T06:24:13.183Z,0.00
2018-12-09T06:25:13.245Z,0.00
2018-12-09T06:26:13.296Z,0.00
2018-12-09T06:27:14.052Z,0.00
2018-12-09T06:28:13.410Z,0.00
2018-12-09T06:29:13.465Z,0.00
2018-12-09T06:30:13.522Z,0.00
2018-12-09T06:31:13.582Z,0.00
2018-12-09T06:32:13.635Z,0.00
2018-12-09T06:33:13.691Z,0.00
2018-12-09T06:34:13.749Z,0.00
2018-12-09T06:35:13.803Z,0.00
2018-12-09T06:36:13.861Z,0.00
2018-12-09T06:37:13.916Z,0.00
2018-12-09T06:38:13.973Z,0.00
2018-12-09T06:39:14.029Z,0.00
2018-12-09T06:40:14.085Z,0.00
2018-12-09T06:41:14.142Z,0.00
2018-12-09T06:42:14.199Z,0.00
2018-12-09T06:43:14.259Z,0.00
2018-12-09T06:44:14.315Z,0.00
2018-12-09T06:45:14.368Z,4.00
2018-12-09T06:46:14.424Z,0.00
2018-12-09T06:47:14.480Z,4.00
2018-12-09T06:48:14.537Z,4.00
2018-12-09T06:49:14.593Z,4.00
2018-12-09T06:50:14.649Z,4.00
2018-12-09T06:51:14.706Z,4.00
2018-12-09T06:52:14.763Z,8.00
2018-12-09T06:53:14.819Z,12.00
2018-12-09T06:54:14.876Z,12.00
2018-12-09T06:55:14.932Z,12.00
2018-12-09T06:56:14.988Z,20.00
2018-12-09T06:57:15.047Z,20.00
2018-12-09T06:58:15.101Z,20.00
2018-12-09T06:59:15.157Z,28.00
2018-12-09T07:00:15.215Z,32.00
2018-12-09T07:01:15.270Z,36.00
2018-12-09T07:02:15.326Z,36.00
2018-12-09T07:03:15.382Z,40.00
2018-12-09T07:04:15.440Z,48.00
2018-12-09T07:05:15.496Z,44.00
2018-12-09T07:06:15.553Z,40.00
2018-12-09T07:07:15.609Z,40.00
2018-12-09T07:08:15.665Z,56.00
2018-12-09T07:09:15.722Z,52.00
2018-12-09T07:10:15.780Z,68.00
2018-12-09T07:11:15.833Z,76.00
2018-12-09T07:12:15.890Z,104.00
2018-12-09T07:13:15.947Z,124.00
2018-12-09T07:14:16.003Z,124.00
2018-12-09T07:15:16.059Z,120.00
2018-12-09T07:16:16.115Z,116.00
2018-12-09T07:17:16.175Z,136.00
2018-12-09T07:18:16.229Z,148.00
2018-12-09T07:19:16.285Z,144.00
2018-12-09T07:20:16.341Z,156.00
2018-12-09T07:21:16.402Z,164.00
2018-12-09T07:22:16.456Z,172.00
2018-12-09T07:23:17.174Z,236.00
2018-12-09T07:24:16.568Z,252.00
2018-12-09T07:25:16.624Z,260.00
2018-12-09T07:26:16.682Z,316.00
2018-12-09T07:27:16.737Z,312.00
2018-12-09T07:28:16.793Z,300.00
2018-12-09T07:29:16.852Z,356.00
2018-12-09T07:30:16.920Z,384.00
2018-12-09T07:31:16.963Z,364.00
2018-12-09T07:32:17.020Z,308.00
2018-12-09T07:33:17.078Z,332.00
2018-12-09T07:34:17.714Z,332.00
2018-12-09T07:35:17.187Z,396.00
2018-12-09T07:36:17.245Z,520.00
2018-12-09T07:37:17.301Z,500.00
2018-12-09T07:38:17.358Z,476.00
2018-12-09T07:39:17.414Z,556.00
2018-12-09T07:40:17.470Z,636.00
2018-12-09T07:41:17.527Z,672.00
2018-12-09T07:42:17.584Z,732.00
2018-12-09T07:43:17.765Z,792.00
2018-12-09T07:44:17.696Z,868.00
2018-12-09T07:45:17.803Z,908.00
2018-12-09T07:46:17.809Z,928.00
2018-12-09T07:47:17.866Z,928.00
2018-12-09T07:48:17.924Z,968.00
2018-12-09T07:49:17.997Z,952.00
2018-12-09T07:50:18.035Z,956.00
2018-12-09T07:51:18.091Z,988.00
2018-12-09T07:52:18.148Z,1052.00
2018-12-09T07:53:18.205Z,1104.00
2018-12-09T07:54:18.260Z,1156.00
2018-12-09T07:55:18.316Z,1188.00
2018-12-09T07:56:18.373Z,1200.00
2018-12-09T07:57:18.431Z,1176.00
2018-12-09T07:58:18.488Z,1212.00
2018-12-09T07:59:18.545Z,1224.00
2018-12-09T08:00:18.600Z,1108.00
2018-12-09T08:01:18.657Z,1048.00
2018-12-09T08:02:18.713Z,1232.00
2018-12-09T08:03:18.769Z,1060.00
2018-12-09T08:04:18.826Z,1276.00
2018-12-09T08:05:18.882Z,1572.00
2018-12-09T08:06:18.940Z,1640.00
2018-12-09T08:07:18.996Z,1776.00
2018-12-09T08:08:19.050Z,1820.00
2018-12-09T08:09:19.109Z,1952.00
2018-12-09T08:10:19.165Z,1956.00
2018-12-09T08:11:19.223Z,1856.00
2018-12-09T08:12:19.278Z,1820.00
2018-12-09T08:13:19.334Z,1964.00
2018-12-09T08:14:19.392Z,2056.00
2018-12-09T08:15:19.448Z,1976.00
2018-12-09T08:16:19.504Z,1860.00
2018-12-09T08:17:19.561Z,2008.00
2018-12-09T08:18:19.617Z,1944.00
2018-12-09T08:19:19.674Z,1876.00
2018-12-09T08:20:19.730Z,1804.00
2018-12-09T08:21:19.786Z,1792.00
2018-12-09T08:22:19.844Z,1780.00
2018-12-09T08:23:19.900Z,1724.00
2018-12-09T08:24:19.956Z,1784.00
2018-12-09T08:25:20.028Z,1956.00
2018-12-09T08:26:20.069Z,2100.00
2018-12-09T08:27:20.125Z,2224.00
2018-12-09T08:28:20.182Z,2280.00
2018-12-09T08:29:20.238Z,2268.00
2018-12-09T08:30:20.298Z,2368.00
2018-12-09T08:31:20.351Z,2556.00
2018-12-09T08:32:20.407Z,2556.00
2018-12-09T08:33:20.466Z,2320.00
2018-12-09T08:34:20.521Z,2600.00
2018-12-09T08:35:20.578Z,2904.00
2018-12-09T08:36:20.633Z,2996.00
2018-12-09T08:37:20.693Z,3080.00
2018-12-09T08:38:20.748Z,2936.00
2018-12-09T08:39:20.850Z,3112.00
2018-12-09T08:40:20.862Z,3296.00
2018-12-09T08:41:20.918Z,3424.00
2018-12-09T08:42:20.972Z,3576.00
2018-12-09T08:43:21.029Z,3492.00
2018-12-09T08:44:21.087Z,3520.00
2018-12-09T08:45:21.143Z,3508.00
2018-12-09T08:46:21.736Z,3472.00
2018-12-09T08:47:21.255Z,3340.00
2018-12-09T08:48:21.412Z,3324.00
2018-12-09T08:49:21.367Z,3432.00
2018-12-09T08:50:21.425Z,3596.00
2018-12-09T08:51:21.481Z,3636.00
2018-12-09T08:52:21.537Z,3552.00
2018-12-09T08:53:21.594Z,3256.00
2018-12-09T08:54:21.650Z,2784.00
2018-12-09T08:55:21.707Z,2552.00
2018-12-09T08:56:22.543Z,2588.00
2018-12-09T08:57:21.820Z,2160.00
2018-12-09T08:58:21.876Z,2320.00
2018-12-09T08:59:21.934Z,2372.00
2018-12-09T09:00:21.989Z,2148.00
2018-12-09T09:01:22.047Z,2892.00
2018-12-09T09:02:22.103Z,3060.00
2018-12-09T09:03:22.158Z,3192.00
2018-12-09T09:04:22.215Z,3396.00
2018-12-09T09:05:22.271Z,3400.00
2018-12-09T09:06:22.327Z,3704.00
2018-12-09T09:07:22.384Z,3348.00
2018-12-09T09:08:22.443Z,3332.00
2018-12-09T09:09:22.496Z,3572.00
2018-12-09T09:10:22.554Z,3360.00
2018-12-09T09:11:22.612Z,3392.00
2018-12-09T09:12:22.666Z,4260.00
2018-12-09T09:13:22.721Z,4220.00
2018-12-09T09:14:22.781Z,3784.00
2018-12-09T09:15:22.835Z,3852.00
2018-12-09T09:16:22.911Z,4660.00
2018-12-09T09:17:22.948Z,4552.00
2018-12-09T09:18:23.004Z,4736.00
2018-12-09T09:19:23.601Z,4960.00
2018-12-09T09:20:23.621Z,5048.00
2018-12-09T09:21:23.175Z,4852.00
2018-12-09T09:22:23.231Z,5168.00
2018-12-09T09:23:23.287Z,5468.00
2018-12-09T09:24:23.342Z,5720.00
2018-12-09T09:25:23.400Z,5812.00
2018-12-09T09:26:23.456Z,5448.00
2018-12-09T09:27:23.511Z,5156.00
2018-12-09T09:28:23.569Z,4660.00
2018-12-09T09:29:23.626Z,4264.00
2018-12-09T09:30:23.687Z,4124.00
2018-12-09T09:31:23.737Z,4496.00
2018-12-09T09:32:23.793Z,5036.00
2018-12-09T09:33:23.851Z,5292.00
2018-12-09T09:34:23.909Z,5032.00
2018-12-09T09:35:23.962Z,4744.00
2018-12-09T09:36:24.021Z,4300.00
2018-12-09T09:37:24.077Z,4252.00
2018-12-09T09:38:24.133Z,4400.00
2018-12-09T09:39:24.190Z,4356.00
2018-12-09T09:40:24.246Z,4588.00
2018-12-09T09:41:24.303Z,4732.00
2018-12-09T09:42:24.360Z,4340.00
2018-12-09T09:43:24.512Z,4332.00
2018-12-09T09:44:24.471Z,5048.00
2018-12-09T09:45:24.528Z,5692.00
2018-12-09T09:46:24.584Z,6260.00
2018-12-09T09:47:24.641Z,6700.00
2018-12-09T09:48:24.698Z,6472.00
2018-12-09T09:49:24.757Z,5900.00
2018-12-09T09:50:24.819Z,6276.00
2018-12-09T09:51:24.867Z,6344.00
2018-12-09T09:52:24.923Z,5856.00
2018-12-09T09:53:24.981Z,5224.00
2018-12-09T09:54:25.037Z,4536.00
2018-12-09T09:55:25.096Z,4224.00
2018-12-09T09:56:25.149Z,4508.00
2018-12-09T09:57:25.206Z,4976.00
2018-12-09T09:58:25.263Z,5676.00
2018-12-09T09:59:25.318Z,5936.00
2018-12-09T10:00:25.376Z,5952.00
2018-12-09T10:01:25.431Z,5664.00
2018-12-09T10:02:25.489Z,5028.00
2018-12-09T10:03:26.271Z,5140.00
2018-12-09T10:04:25.602Z,5068.00
2018-12-09T10:05:25.658Z,4100.00
2018-12-09T10:06:25.716Z,3684.00
2018-12-09T10:07:26.444Z,3016.00
2018-12-09T10:08:25.828Z,3440.00
2018-12-09T10:09:25.884Z,4744.00
2018-12-09T10:10:25.944Z,6928.00
2018-12-09T10:11:26.704Z,6944.00
2018-12-09T10:12:26.054Z,6280.00
2018-12-09T10:13:26.112Z,6000.00
2018-12-09T10:14:26.181Z,8024.00
2018-12-09T10:15:26.226Z,6424.00
2018-12-09T10:16:26.281Z,6116.00
2018-12-09T10:17:26.337Z,6308.00
2018-12-09T10:18:26.395Z,7988.00
2018-12-09T10:19:27.104Z,7684.00
2018-12-09T10:20:27.176Z,5800.00
2018-12-09T10:21:27.256Z,6104.00
2018-12-09T10:22:32.064Z,6176.00
2018-12-09T10:23:26.680Z,5544.00
2018-12-09T10:24:26.734Z,4872.00
2018-12-09T10:25:26.792Z,4172.00
2018-12-09T10:26:26.849Z,4744.00
2018-12-09T10:27:26.904Z,4844.00
2018-12-09T10:28:26.961Z,4460.00
2018-12-09T10:29:27.017Z,4760.00
2018-12-09T10:30:27.076Z,4316.00
2018-12-09T10:31:27.132Z,3944.00
2018-12-09T10:32:27.212Z,3572.00
2018-12-09T10:33:27.245Z,3392.00
2018-12-09T10:34:27.303Z,3380.00
2018-12-09T10:35:27.448Z,3208.00
2018-12-09T10:36:27.416Z,3076.00
2018-12-09T10:37:27.472Z,3076.00
2018-12-09T10:38:27.529Z,3692.00
2018-12-09T10:39:27.585Z,4564.00
2018-12-09T10:40:27.643Z,5580.00
2018-12-09T10:41:27.698Z,6032.00
2018-12-09T10:42:27.756Z,5772.00
2018-12-09T10:43:27.812Z,5336.00
2018-12-09T10:44:27.869Z,4912.00
2018-12-09T10:45:27.981Z,4520.00
2018-12-09T10:46:27.984Z,4692.00
2018-12-09T10:47:28.042Z,4840.00
2018-12-09T10:48:28.096Z,4828.00
2018-12-09T10:49:28.153Z,4680.00
2018-12-09T10:50:28.210Z,4680.00
2018-12-09T10:51:28.266Z,5232.00
2018-12-09T10:52:28.324Z,6064.00
2018-12-09T10:53:28.380Z,6128.00
2018-12-09T10:54:28.438Z,6144.00
2018-12-09T10:55:28.503Z,6412.00
2018-12-09T10:56:28.554Z,5792.00
2018-12-09T10:57:28.608Z,5900.00
2018-12-09T10:58:28.664Z,6140.00
2018-12-09T10:59:28.721Z,6320.00
2018-12-09T11:00:29.087Z,6660.00
2018-12-09T11:01:29.479Z,6068.00
2018-12-09T11:02:28.892Z,5436.00
2018-12-09T11:03:28.949Z,5256.00
2018-12-09T11:04:29.005Z,5348.00
2018-12-09T11:05:29.440Z,5512.00
2018-12-09T11:06:29.124Z,5680.00
2018-12-09T11:07:29.181Z,5584.00
2018-12-09T11:08:29.233Z,6116.00
2018-12-09T11:09:29.291Z,6984.00
2018-12-09T11:10:29.349Z,7916.00
2018-12-09T11:11:29.420Z,7128.00
2018-12-09T11:12:29.461Z,6512.00
2018-12-09T11:13:29.517Z,7484.00
2018-12-09T11:14:29.576Z,9516.00
2018-12-09T11:15:29.632Z,10084.00
2018-12-09T11:16:29.689Z,10956.00
2018-12-09T11:17:29.753Z,12808.00
2018-12-09T11:18:29.838Z,13176.00
2018-12-09T11:19:29.859Z,11280.00
2018-12-09T11:20:29.917Z,8316.00
2018-12-09T11:21:30.827Z,6692.00
2018-12-09T11:22:30.033Z,8184.00
2018-12-09T11:23:30.088Z,11688.00
2018-12-09T11:24:30.147Z,12640.00
2018-12-09T11:25:30.203Z,11172.00
2018-12-09T11:26:30.261Z,11780.00
2018-12-09T11:27:30.318Z,13136.00
2018-12-09T11:28:30.377Z,14584.00
2018-12-09T11:29:30.434Z,14956.00
2018-12-09T11:30:30.492Z,14488.00
2018-12-09T11:31:31.088Z,12800.00
2018-12-09T11:32:30.607Z,10720.00
2018-12-09T11:33:30.665Z,9524.00
2018-12-09T11:34:30.721Z,7752.00
2018-12-09T11:35:30.778Z,6288.00
2018-12-09T11:36:30.836Z,5028.00
2018-12-09T11:37:30.895Z,4820.00
2018-12-09T11:38:30.956Z,4672.00
2018-12-09T11:39:31.321Z,5636.00
2018-12-09T11:40:31.067Z,7584.00
2018-12-09T11:41:31.126Z,6876.00
2018-12-09T11:42:31.191Z,5336.00
2018-12-09T11:43:31.241Z,6056.00
2018-12-09T11:44:31.298Z,6624.00
2018-12-09T11:45:31.357Z,7712.00
2018-12-09T11:46:31.413Z,8444.00
2018-12-09T11:47:31.473Z,9400.00
2018-12-09T11:48:31.528Z,10096.00
2018-12-09T11:49:31.587Z,7232.00
2018-12-09T11:50:31.643Z,6228.00
2018-12-09T11:51:31.700Z,9296.00
2018-12-09T11:52:31.757Z,9560.00
2018-12-09T11:53:31.816Z,7668.00
2018-12-09T11:54:31.875Z,7020.00
2018-12-09T11:55:31.930Z,6540.00
2018-12-09T11:56:31.987Z,5696.00
2018-12-09T11:57:32.049Z,5196.00
2018-12-09T11:58:32.103Z,4956.00
2018-12-09T11:59:32.159Z,4924.00
2018-12-09T12:00:32.224Z,6012.00
2018-12-09T12:01:32.279Z,6760.00
2018-12-09T12:02:32.332Z,6312.00
2018-12-09T12:03:32.388Z,7336.00
2018-12-09T12:04:32.447Z,8568.00
2018-12-09T12:05:32.504Z,8384.00
2018-12-09T12:06:32.563Z,7800.00
2018-12-09T12:07:32.619Z,7880.00
2018-12-09T12:08:32.676Z,8576.00
2018-12-09T12:09:32.733Z,9484.00
2018-12-09T12:10:32.791Z,9640.00
2018-12-09T12:11:32.849Z,10488.00
2018-12-09T12:12:32.907Z,10780.00
2018-12-09T12:13:32.966Z,10156.00
2018-12-09T12:14:33.021Z,9784.00
2018-12-09T12:15:33.078Z,9260.00
2018-12-09T12:16:33.136Z,8976.00
2018-12-09T12:17:33.194Z,8748.00
2018-12-09T12:18:33.254Z,8844.00
2018-12-09T12:19:33.309Z,9892.00
2018-12-09T12:20:33.365Z,9760.00
2018-12-09T12:21:33.424Z,9000.00
2018-12-09T12:22:33.483Z,8172.00
2018-12-09T12:23:33.542Z,8284.00
2018-12-09T12:24:33.597Z,7820.00
2018-12-09T12:25:33.657Z,5176.00
2018-12-09T12:26:33.713Z,3032.00
2018-12-09T12:27:33.773Z,2476.00
2018-12-09T12:28:33.828Z,2444.00
2018-12-09T12:29:33.887Z,2584.00
2018-12-09T12:30:33.944Z,3400.00
2018-12-09T12:31:34.000Z,4788.00
2018-12-09T12:32:34.062Z,5760.00
2018-12-09T12:33:34.118Z,5716.00
2018-12-09T12:34:34.175Z,4968.00
2018-12-09T12:35:34.232Z,4228.00
2018-12-09T12:36:34.290Z,3952.00
2018-12-09T12:37:34.345Z,3360.00
2018-12-09T12:38:34.403Z,3184.00
2018-12-09T12:39:34.463Z,2440.00
2018-12-09T12:40:34.518Z,1976.00
2018-12-09T12:41:34.581Z,2148.00
2018-12-09T12:42:34.633Z,2040.00
2018-12-09T12:43:34.690Z,1968.00
2018-12-09T12:44:34.749Z,2160.00
2018-12-09T12:45:34.804Z,2664.00
2018-12-09T12:46:34.863Z,2516.00